Time;durP1;ratioP1;P1;durP2;ratioP2;P2;SDS_P1;SDS_P2;PMS_P1;PMS_P2;Temp;Humidity;BMP_temperature;BMP_pressure;BME280_temperature;BME280_humidity;BME280_pressure;Samples;Min_cycle;Max_cycle;Signal;HPM_P1;HPM_P2
2023/09/08 00:02:08;;;;;;;4.05;2.80;;;20.70;98.70;;;;;;5056054;28;20450;-84
2023/09/08 00:04:33;;;;;;;5.80;3.17;;;20.80;98.60;;;;;;5056056;28;20063;-84
2023/09/08 00:07:00;;;;;;;5.97;3.30;;;20.70;98.70;;;;;;5056140;28;20036;-85
2023/09/08 00:09:25;;;;;;;3.60;2.80;;;20.70;98.80;;;;;;5056396;28;20107;-85
2023/09/08 00:11:52;;;;;;;5.32;3.28;;;20.70;98.90;;;;;;5056409;28;20086;-86
2023/09/08 00:14:18;;;;;;;4.70;3.10;;;20.60;99.00;;;;;;5056250;28;20032;-86
2023/09/08 00:16:43;;;;;;;5.88;3.17;;;20.60;99.20;;;;;;5056248;28;20036;-85
2023/09/08 00:19:10;;;;;;;8.90;3.17;;;20.50;99.10;;;;;;5055799;28;20060;-85
2023/09/08 00:21:36;;;;;;;5.13;3.40;;;20.60;99.20;;;;;;5056418;28;20025;-86
2023/09/08 00:24:03;;;;;;;4.85;3.30;;;20.50;99.40;;;;;;5055584;28;20020;-85
2023/09/08 00:26:29;;;;;;;5.03;3.20;;;20.40;99.50;;;;;;5057680;28;20028;-86
2023/09/08 00:28:55;;;;;;;8.98;6.55;;;20.40;99.60;;;;;;5060138;28;20031;-89
2023/09/08 00:31:20;;;;;;;4.13;3.20;;;20.40;99.50;;;;;;5060057;28;20024;-86
2023/09/08 00:33:46;;;;;;;6.25;3.20;;;20.30;99.60;;;;;;5060514;28;20035;-85
2023/09/08 00:36:11;;;;;;;5.28;3.35;;;20.40;99.60;;;;;;5059999;28;20033;-86
2023/09/08 00:38:37;;;;;;;4.57;3.33;;;20.40;99.50;;;;;;5060111;28;20401;-85
2023/09/08 00:41:05;;;;;;;6.03;3.22;;;20.40;99.40;;;;;;5059886;28;20032;-86
2023/09/08 00:43:30;;;;;;;6.30;3.13;;;20.40;99.50;;;;;;5060332;28;20385;-85
2023/09/08 00:45:58;;;;;;;8.43;3.35;;;20.40;99.60;;;;;;5060121;28;20039;-87
2023/09/08 00:48:25;;;;;;;4.45;3.10;;;20.30;99.60;;;;;;5077936;28;20032;-85
2023/09/08 00:50:50;;;;;;;5.18;3.30;;;20.30;99.60;;;;;;5059805;28;20048;-85
2023/09/08 00:53:17;;;;;;;6.95;3.70;;;20.30;99.50;;;;;;5059488;28;20024;-85
2023/09/08 00:55:43;;;;;;;6.57;3.17;;;20.30;99.90;;;;;;5077548;28;20017;-85
2023/09/08 00:58:09;;;;;;;3.80;2.88;;;20.30;99.70;;;;;;5059616;28;20116;-85
2023/09/08 01:00:35;;;;;;;5.78;3.55;;;20.20;99.70;;;;;;5077505;28;20033;-85
2023/09/08 01:03:02;;;;;;;4.35;3.20;;;20.20;99.60;;;;;;5077202;28;20023;-85
2023/09/08 01:05:28;;;;;;;5.25;3.47;;;20.20;99.70;;;;;;5059855;28;20466;-85
2023/09/08 01:07:55;;;;;;;5.65;3.30;;;20.20;99.90;;;;;;5059964;28;20025;-86
2023/09/08 01:10:21;;;;;;;5.72;3.60;;;20.20;99.90;;;;;;5077111;28;20028;-85
2023/09/08 01:12:46;;;;;;;5.32;3.40;;;20.10;99.90;;;;;;5059422;28;20381;-85
2023/09/08 01:15:12;;;;;;;4.43;3.20;;;20.10;99.90;;;;;;5059018;28;20032;-85
2023/09/08 01:17:39;;;;;;;4.90;3.05;;;20.10;99.90;;;;;;5059306;28;20039;-85
2023/09/08 01:20:21;;;;;;;6.75;3.97;;;20.00;99.90;;;;;;5058732;28;20472;-86
2023/09/08 01:23:12;;;;;;;5.60;3.78;;;20.10;99.90;;;;;;5076525;28;20107;-86
2023/09/08 01:25:46;;;;;;;8.75;3.63;;;20.00;99.90;;;;;;5059582;28;20071;-85
2023/09/08 01:28:12;;;;;;;5.97;3.78;;;20.00;99.90;;;;;;5059115;28;20031;-85
2023/09/08 01:30:39;;;;;;;5.10;3.47;;;19.90;99.90;;;;;;5059350;28;20029;-85
2023/09/08 01:33:05;;;;;;;6.90;3.90;;;20.00;99.90;;;;;;5058839;28;20035;-86
2023/09/08 01:35:31;;;;;;;6.65;3.22;;;20.00;99.90;;;;;;5076647;28;20025;-85
2023/09/08 01:37:57;;;;;;;7.15;3.50;;;20.00;99.90;;;;;;5057562;28;20024;-89
2023/09/08 01:40:23;;;;;;;4.10;3.03;;;19.90;99.90;;;;;;5076583;28;20032;-85
2023/09/08 01:42:49;;;;;;;5.07;3.42;;;19.90;99.90;;;;;;5059007;28;20107;-86
2023/09/08 01:45:14;;;;;;;6.93;3.58;;;19.90;99.90;;;;;;5076306;28;20024;-86
2023/09/08 01:47:40;;;;;;;7.90;3.50;;;19.90;99.90;;;;;;5059384;28;20032;-86
2023/09/08 01:50:06;;;;;;;5.93;3.60;;;19.80;99.90;;;;;;5058439;28;20056;-86
2023/09/08 01:52:31;;;;;;;5.78;3.42;;;19.80;99.90;;;;;;5058692;28;20028;-85
2023/09/08 01:54:57;;;;;;;4.38;3.65;;;19.80;99.90;;;;;;5076332;28;20024;-84
2023/09/08 01:57:23;;;;;;;5.68;3.20;;;19.80;99.90;;;;;;5058114;28;20039;-84
2023/09/08 01:59:48;;;;;;;7.13;3.75;;;19.80;99.90;;;;;;5058574;28;20038;-84
2023/09/08 02:02:14;;;;;;;6.18;4.10;;;19.70;99.90;;;;;;5075897;28;20123;-86
2023/09/08 02:04:41;;;;;;;5.82;3.83;;;19.70;99.90;;;;;;5058803;28;20025;-85
2023/09/08 02:07:06;;;;;;;6.53;3.65;;;19.70;99.90;;;;;;5058293;28;20036;-85
2023/09/08 02:09:33;;;;;;;5.95;3.67;;;19.70;99.90;;;;;;5058162;28;20051;-85
2023/09/08 02:11:59;;;;;;;7.18;3.58;;;19.60;99.90;;;;;;5058147;28;20039;-88
2023/09/08 02:14:25;;;;;;;5.70;3.58;;;19.60;99.90;;;;;;5075584;28;20029;-85
2023/09/08 02:16:50;;;;;;;5.10;3.42;;;19.60;99.90;;;;;;5058133;28;20032;-85
2023/09/08 02:19:16;;;;;;;6.43;3.60;;;19.60;99.90;;;;;;5057828;28;20032;-85
2023/09/08 02:21:42;;;;;;;7.18;3.70;;;19.50;99.90;;;;;;5058240;28;20028;-84
2023/09/08 02:24:07;;;;;;;5.85;3.47;;;19.50;99.90;;;;;;5074831;28;20107;-86
2023/09/08 02:26:33;;;;;;;8.10;3.90;;;19.50;99.90;;;;;;5058277;28;20028;-85
2023/09/08 02:29:00;;;;;;;5.32;3.38;;;19.40;99.90;;;;;;5057813;28;20416;-85
2023/09/08 02:31:28;;;;;;;6.50;3.75;;;19.40;99.90;;;;;;5057456;28;20029;-85
2023/09/08 02:33:54;;;;;;;4.55;3.13;;;19.40;99.90;;;;;;5057614;28;20031;-85
2023/09/08 02:36:25;;;;;;;5.07;3.47;;;19.40;99.90;;;;;;5057068;28;20029;-85
2023/09/08 02:38:55;;;;;;;;;;;19.40;99.90;;;;;;5075963;28;20031;-86
2023/09/08 02:41:21;;;;;;;5.70;3.63;;;19.30;99.90;;;;;;5056849;28;20121;-85
2023/09/08 02:43:46;;;;;;;6.03;3.42;;;19.30;99.90;;;;;;5057801;28;20461;-85
2023/09/08 02:46:13;;;;;;;9.07;3.90;;;19.30;99.90;;;;;;5057160;28;20024;-84
2023/09/08 02:48:39;;;;;;;6.35;3.83;;;19.20;99.90;;;;;;5057201;28;20390;-84
2023/09/08 02:51:04;;;;;;;6.57;4.07;;;19.20;99.90;;;;;;5056924;28;20024;-87
2023/09/08 02:53:30;;;;;;;7.90;4.00;;;19.20;99.90;;;;;;5057590;28;20021;-85
2023/09/08 02:55:56;;;;;;;5.65;3.50;;;19.20;99.90;;;;;;5057630;28;20058;-84
2023/09/08 02:58:22;;;;;;;5.63;3.80;;;19.20;99.90;;;;;;5057262;28;20029;-84
2023/09/08 03:00:48;;;;;;;5.40;3.75;;;19.20;99.90;;;;;;5057278;28;20458;-84
2023/09/08 03:03:14;;;;;;;6.82;3.80;;;19.10;99.90;;;;;;5056747;28;20070;-85
2023/09/08 03:05:39;;;;;;;7.93;3.67;;;19.10;99.90;;;;;;5057516;28;20031;-85
2023/09/08 03:08:05;;;;;;;4.82;3.42;;;19.00;99.90;;;;;;5057004;28;20032;-86
2023/09/08 03:10:34;;;;;;;6.78;4.30;;;18.90;99.90;;;;;;5074599;28;20462;-85
2023/09/08 03:13:00;;;;;;;9.18;3.60;;;18.90;99.90;;;;;;5057150;28;20021;-85
2023/09/08 03:15:28;;;;;;;9.15;4.47;;;18.80;99.90;;;;;;5056851;28;20107;-85
2023/09/08 03:17:54;;;;;;;6.03;4.18;;;18.80;99.90;;;;;;5057580;28;20508;-85
2023/09/08 03:20:20;;;;;;;9.25;4.18;;;18.90;99.90;;;;;;5056648;28;20082;-85
2023/09/08 03:22:46;;;;;;;6.55;3.60;;;18.90;99.90;;;;;;5074850;28;20103;-85
2023/09/08 03:25:14;;;;;;;5.68;3.90;;;18.90;99.90;;;;;;5074421;28;20082;-85
2023/09/08 03:27:39;;;;;;;5.82;3.38;;;18.90;99.90;;;;;;5057274;28;20035;-85
2023/09/08 03:30:06;;;;;;;4.93;3.40;;;18.90;99.90;;;;;;5056812;28;20028;-88
2023/09/08 03:32:32;;;;;;;7.13;3.63;;;18.90;99.90;;;;;;5074876;28;20025;-85
2023/09/08 03:34:57;;;;;;;7.63;4.03;;;18.80;99.90;;;;;;5074552;28;20377;-85
2023/09/08 03:37:23;;;;;;;6.78;3.55;;;18.80;99.90;;;;;;5074473;28;20064;-85
2023/09/08 03:39:49;;;;;;;6.82;3.85;;;18.80;99.90;;;;;;5056657;28;20033;-85
2023/09/08 03:42:14;;;;;;;6.50;3.38;;;18.80;99.90;;;;;;5056427;28;20025;-85
2023/09/08 03:44:40;;;;;;;5.13;3.58;;;18.80;99.90;;;;;;5074534;28;20028;-84
2023/09/08 03:47:06;;;;;;;6.28;3.80;;;18.80;99.90;;;;;;5057055;28;20621;-88
2023/09/08 03:49:33;;;;;;;6.05;3.50;;;18.70;99.90;;;;;;5074204;28;20107;-85
2023/09/08 03:51:58;;;;;;;6.32;3.53;;;18.70;99.90;;;;;;5056627;28;20029;-85
2023/09/08 03:54:24;;;;;;;7.78;3.63;;;18.70;99.90;;;;;;5056094;28;20768;-85
2023/09/08 03:56:49;;;;;;;5.47;3.80;;;18.60;99.90;;;;;;5074072;28;20042;-85
2023/09/08 03:59:15;;;;;;;4.68;3.50;;;18.60;99.90;;;;;;5056110;28;20021;-85
2023/09/08 04:01:40;;;;;;;5.47;3.80;;;18.50;99.90;;;;;;5073346;28;20024;-85
2023/09/08 04:04:07;;;;;;;5.85;3.35;;;18.40;99.90;;;;;;5056335;28;20162;-87
2023/09/08 04:06:32;;;;;;;5.20;3.55;;;18.50;99.90;;;;;;5074154;28;20060;-85
2023/09/08 04:08:58;;;;;;;7.55;3.97;;;18.40;99.90;;;;;;5056377;28;20078;-85
2023/09/08 04:11:23;;;;;;;9.48;3.70;;;18.40;99.90;;;;;;5055821;28;20468;-85
2023/09/08 04:13:49;;;;;;;8.05;3.42;;;18.30;99.90;;;;;;5056140;28;20048;-85
2023/09/08 04:16:15;;;;;;;5.82;3.63;;;18.30;99.90;;;;;;5073447;28;20108;-86
2023/09/08 04:18:41;;;;;;;5.18;3.40;;;18.30;99.90;;;;;;5056409;28;20029;-85
2023/09/08 04:21:09;;;;;;;4.72;3.40;;;18.40;99.90;;;;;;5056291;28;20384;-86
2023/09/08 04:23:35;;;;;;;4.40;3.22;;;18.30;99.90;;;;;;5056279;28;20021;-85
2023/09/08 04:26:01;;;;;;;6.85;3.50;;;18.40;99.90;;;;;;5056585;28;20078;-85
2023/09/08 04:28:26;;;;;;;4.72;3.17;;;18.30;99.90;;;;;;5055574;28;20029;-85
2023/09/08 04:30:52;;;;;;;5.70;3.65;;;18.20;99.90;;;;;;5056101;28;20031;-85
2023/09/08 04:33:17;;;;;;;6.38;3.70;;;18.10;99.90;;;;;;5055495;28;20078;-85
2023/09/08 04:35:43;;;;;;;8.20;3.63;;;18.10;99.90;;;;;;5056000;28;20055;-85
2023/09/08 04:38:09;;;;;;;4.78;3.20;;;18.10;99.90;;;;;;5073233;28;20029;-90
2023/09/08 04:40:34;;;;;;;4.78;3.50;;;18.00;99.90;;;;;;5055750;28;20024;-84
2023/09/08 04:43:00;;;;;;;6.20;3.58;;;18.00;99.90;;;;;;5055926;28;20418;-85
2023/09/08 04:45:26;;;;;;;6.35;3.72;;;17.90;99.90;;;;;;5055536;28;20118;-85
2023/09/08 04:47:51;;;;;;;5.78;3.45;;;17.90;99.90;;;;;;5056039;28;20226;-85
2023/09/08 04:50:17;;;;;;;10.40;4.00;;;17.90;99.90;;;;;;5073081;28;20056;-85
2023/09/08 04:52:43;;;;;;;6.40;3.45;;;17.90;99.90;;;;;;5073810;28;20025;-85
2023/09/08 04:55:09;;;;;;;7.40;3.70;;;17.90;99.90;;;;;;5056047;28;20052;-86
2023/09/08 04:57:35;;;;;;;6.82;3.60;;;17.90;99.90;;;;;;5073107;28;20119;-85
2023/09/08 05:00:01;;;;;;;9.68;4.47;;;17.90;99.90;;;;;;5055622;28;20066;-85
2023/09/08 05:02:27;;;;;;;5.45;3.90;;;17.80;99.90;;;;;;5055044;28;20036;-85
2023/09/08 05:04:52;;;;;;;5.97;3.55;;;17.80;99.90;;;;;;5055553;28;20092;-85
2023/09/08 05:07:18;;;;;;;6.97;3.65;;;17.80;99.90;;;;;;5072949;28;20028;-85
2023/09/08 05:09:44;;;;;;;7.18;3.53;;;17.80;99.90;;;;;;5073717;28;20025;-85
2023/09/08 05:12:10;;;;;;;8.85;4.43;;;17.80;99.90;;;;;;5056656;28;20035;-87
2023/09/08 05:14:36;;;;;;;8.07;4.13;;;17.70;99.90;;;;;;5059483;28;20380;-85
2023/09/08 05:17:01;;;;;;;7.13;4.05;;;17.70;99.90;;;;;;5059241;28;20454;-85
2023/09/08 05:19:27;;;;;;;6.40;3.90;;;17.80;99.90;;;;;;5058782;28;20025;-85
2023/09/08 05:21:54;;;;;;;5.90;3.90;;;17.80;99.90;;;;;;5059338;28;20130;-85
2023/09/08 05:24:20;;;;;;;6.50;3.97;;;17.80;99.90;;;;;;5076494;28;20024;-85
2023/09/08 05:26:46;;;;;;;6.90;4.22;;;17.80;99.90;;;;;;5077156;28;20032;-85
2023/09/08 05:29:11;;;;;;;4.90;3.53;;;17.80;99.90;;;;;;5076565;28;20024;-87
2023/09/08 05:31:37;;;;;;;7.90;3.88;;;17.90;99.90;;;;;;5058800;28;20111;-85
2023/09/08 05:34:03;;;;;;;6.00;3.92;;;17.90;99.90;;;;;;5059257;28;20023;-85
2023/09/08 05:36:29;;;;;;;4.82;3.63;;;17.80;99.90;;;;;;5058685;28;20477;-85
2023/09/08 05:38:55;;;;;;;7.15;3.90;;;17.80;99.90;;;;;;5059399;28;20098;-85
2023/09/08 05:41:21;;;;;;;7.50;3.55;;;17.90;99.90;;;;;;5058434;28;20029;-85
2023/09/08 05:43:47;;;;;;;5.35;3.92;;;17.90;99.90;;;;;;5058955;28;20029;-85
2023/09/08 05:46:13;;;;;;;6.13;3.60;;;17.90;99.90;;;;;;5058787;28;20051;-88
2023/09/08 05:48:38;;;;;;;4.43;3.30;;;17.90;99.90;;;;;;5058886;28;20028;-84
2023/09/08 05:51:05;;;;;;;7.25;3.88;;;17.90;99.90;;;;;;5076601;28;20016;-85
2023/09/08 05:53:32;;;;;;;9.38;3.97;;;17.90;99.90;;;;;;5058508;28;20029;-85
2023/09/08 05:55:58;;;;;;;6.05;3.70;;;17.90;99.90;;;;;;5058754;28;20032;-85
2023/09/08 05:58:26;;;;;;;8.15;4.03;;;17.90;99.90;;;;;;5076196;28;20040;-85
2023/09/08 06:00:55;;;;;;;6.88;4.20;;;18.00;99.90;;;;;;5076307;28;20017;-85
2023/09/08 06:03:21;;;;;;;7.97;4.07;;;18.00;99.90;;;;;;5076190;28;20032;-85
2023/09/08 06:05:46;;;;;;;5.85;3.70;;;18.00;99.90;;;;;;5058511;28;20035;-85
2023/09/08 06:08:12;;;;;;;6.20;3.88;;;17.90;99.90;;;;;;5058772;28;20033;-85
2023/09/08 06:10:38;;;;;;;6.10;3.80;;;18.00;99.90;;;;;;5058252;28;20032;-85
2023/09/08 06:13:04;;;;;;;7.22;4.32;;;18.00;99.90;;;;;;5058024;28;20051;-85
2023/09/08 06:15:30;;;;;;;7.80;4.30;;;18.00;99.90;;;;;;5057477;28;20389;-85
2023/09/08 06:17:56;;;;;;;7.18;4.22;;;18.00;99.90;;;;;;5075855;28;20033;-84
2023/09/08 06:20:22;;;;;;;7.05;4.57;;;18.10;99.90;;;;;;5058238;28;20092;-85
2023/09/08 06:22:47;;;;;;;9.05;4.68;;;18.10;99.90;;;;;;5058518;28;20024;-85
2023/09/08 06:25:13;;;;;;;8.15;4.18;;;18.20;99.90;;;;;;5057474;28;20028;-85
2023/09/08 06:27:39;;;;;;;8.70;4.40;;;18.20;99.90;;;;;;5058131;28;20033;-85
2023/09/08 06:30:05;;;;;;;7.68;4.10;;;18.30;99.90;;;;;;5058604;28;20060;-85
2023/09/08 06:32:31;;;;;;;7.53;3.85;;;18.40;99.90;;;;;;5057923;28;20170;-85
2023/09/08 06:34:57;;;;;;;7.07;4.30;;;18.40;99.90;;;;;;5058079;28;20089;-84
2023/09/08 06:37:22;;;;;;;6.47;4.65;;;18.40;99.90;;;;;;5058195;28;20039;-86
2023/09/08 06:39:48;;;;;;;8.45;4.15;;;18.50;99.90;;;;;;5075905;28;20028;-85
2023/09/08 06:42:13;;;;;;;8.63;4.60;;;18.50;99.90;;;;;;5057957;28;20036;-84
2023/09/08 06:44:39;;;;;;;7.25;4.53;;;18.50;99.90;;;;;;5075062;28;20024;-85
2023/09/08 06:47:06;;;;;;;7.38;4.10;;;18.60;99.90;;;;;;5075471;28;20354;-87
2023/09/08 06:49:32;;;;;;;9.57;4.40;;;18.60;99.90;;;;;;5075060;28;20485;-87
2023/09/08 06:51:58;;;;;;;6.93;4.30;;;18.60;99.90;;;;;;5057988;28;20028;-87
2023/09/08 06:54:24;;;;;;;7.20;5.28;;;18.70;99.90;;;;;;5057918;28;20029;-87
2023/09/08 06:56:49;;;;;;;6.97;4.82;;;18.70;99.90;;;;;;5058053;28;20465;-83
2023/09/08 06:59:15;;;;;;;8.05;4.63;;;18.80;99.90;;;;;;5056807;28;20029;-81
2023/09/08 07:01:41;;;;;;;9.93;4.95;;;18.80;99.90;;;;;;5057079;28;20115;-81
2023/09/08 07:04:06;;;;;;;6.45;4.35;;;18.80;99.90;;;;;;5074701;28;20052;-82
2023/09/08 07:06:32;;;;;;;5.50;3.90;;;18.80;99.90;;;;;;5056411;28;20127;-82
2023/09/08 07:08:58;;;;;;;5.82;3.85;;;18.90;99.90;;;;;;5057316;28;20096;-84
2023/09/08 07:11:23;;;;;;;8.13;4.72;;;19.00;99.90;;;;;;5056394;28;20025;-85
2023/09/08 07:13:49;;;;;;;6.85;4.28;;;19.00;99.90;;;;;;5056899;28;20024;-85
2023/09/08 07:16:14;;;;;;;6.63;4.10;;;19.00;99.90;;;;;;5056790;28;20040;-86
2023/09/08 07:18:40;;;;;;;7.20;4.72;;;19.10;99.90;;;;;;5056559;28;20086;-85
2023/09/08 07:21:06;;;;;;;6.90;4.15;;;19.10;99.90;;;;;;5057410;28;20028;-85
2023/09/08 07:23:31;;;;;;;6.70;4.25;;;19.10;99.90;;;;;;5074284;28;20528;-85
2023/09/08 07:25:57;;;;;;;9.90;4.80;;;19.10;99.90;;;;;;5057431;28;20025;-86
2023/09/08 07:28:23;;;;;;;8.00;4.63;;;19.20;99.90;;;;;;5056078;28;20032;-86
2023/09/08 07:30:48;;;;;;;7.90;4.55;;;19.20;99.90;;;;;;5074776;28;20056;-86
2023/09/08 07:33:14;;;;;;;8.35;4.30;;;19.30;99.90;;;;;;5056651;28;20028;-86
2023/09/08 07:35:40;;;;;;;7.03;4.70;;;19.30;99.90;;;;;;5056369;28;20032;-86
2023/09/08 07:38:06;;;;;;;8.00;4.80;;;19.40;99.90;;;;;;5056994;28;20041;-86
2023/09/08 07:40:35;;;;;;;8.43;4.50;;;19.40;99.90;;;;;;5056181;28;20115;-85
2023/09/08 07:43:00;;;;;;;8.82;4.47;;;19.40;99.90;;;;;;5057228;28;20102;-85
2023/09/08 07:45:26;;;;;;;7.53;4.40;;;19.50;99.90;;;;;;5075358;28;20024;-84
2023/09/08 07:47:52;;;;;;;5.85;4.45;;;19.50;99.90;;;;;;5057072;28;20449;-82
2023/09/08 07:50:23;;;;;;;6.38;4.75;;;19.50;99.90;;;;;;5076187;28;20465;-83
2023/09/08 07:52:50;;;;;;;7.38;4.88;;;19.60;99.90;;;;;;5057975;28;20074;-82
2023/09/08 07:55:17;;;;;;;7.65;4.95;;;19.60;99.90;;;;;;5056302;28;20028;-84
2023/09/08 07:57:43;;;;;;;7.70;4.88;;;19.70;99.90;;;;;;5056256;28;20025;-85
2023/09/08 08:00:12;;;;;;;7.13;4.70;;;19.70;99.90;;;;;;5056484;28;20017;-84
2023/09/08 08:02:41;;;;;;;5.45;4.53;;;19.80;99.90;;;;;;5056087;28;20078;-85
2023/09/08 08:05:07;;;;;;;9.82;4.63;;;19.80;99.90;;;;;;5056107;28;20024;-85
2023/09/08 08:07:33;;;;;;;8.88;4.63;;;19.90;99.90;;;;;;5055947;28;20021;-84
2023/09/08 08:09:59;;;;;;;7.97;4.80;;;19.90;99.90;;;;;;5056590;28;20045;-85
2023/09/08 08:12:24;;;;;;;9.68;4.50;;;19.90;99.90;;;;;;5056461;28;20020;-84
2023/09/08 08:14:50;;;;;;;7.95;5.10;;;19.90;99.90;;;;;;5074292;28;20027;-84
2023/09/08 08:17:17;;;;;;;9.00;5.13;;;20.00;99.90;;;;;;5056477;28;20586;-83
2023/09/08 08:19:43;;;;;;;7.25;4.78;;;20.00;99.90;;;;;;5056124;28;20077;-82
2023/09/08 08:22:09;;;;;;;10.88;4.88;;;20.10;99.90;;;;;;5056536;28;20115;-82
2023/09/08 08:24:34;;;;;;;13.57;5.10;;;20.10;99.90;;;;;;5073790;28;20016;-83
2023/09/08 08:27:01;;;;;;;9.52;5.22;;;20.10;99.90;;;;;;5056490;28;20449;-83
2023/09/08 08:29:27;;;;;;;5.60;4.63;;;20.30;99.90;;;;;;5056203;28;20111;-83
2023/09/08 08:31:52;;;;;;;8.90;5.35;;;20.30;99.90;;;;;;5074517;28;20048;-82
2023/09/08 08:34:18;;;;;;;11.35;5.40;;;20.30;99.90;;;;;;5056366;28;20433;-82
2023/09/08 08:36:43;;;;;;;9.13;5.68;;;20.40;99.90;;;;;;5073545;28;20173;-83
2023/09/08 08:39:09;;;;;;;7.28;5.20;;;20.50;99.90;;;;;;5056449;28;20024;-82
2023/09/08 08:41:37;;;;;;;8.10;5.55;;;20.50;99.90;;;;;;5055627;28;20422;-83
2023/09/08 08:44:05;;;;;;;9.57;6.03;;;20.50;99.90;;;;;;5056544;28;20024;-83
2023/09/08 08:46:33;;;;;;;8.50;5.00;;;20.60;99.90;;;;;;5055562;28;20025;-82
2023/09/08 08:49:02;;;;;;;9.00;5.05;;;20.60;99.90;;;;;;5059999;28;20380;-82
2023/09/08 08:51:30;;;;;;;9.07;5.55;;;20.70;99.90;;;;;;5077471;28;20021;-83
2023/09/08 08:53:56;;;;;;;8.73;5.70;;;20.70;99.90;;;;;;5060443;28;20021;-85
2023/09/08 08:56:22;;;;;;;14.18;9.82;;;20.70;99.90;;;;;;5059856;28;20462;-86
2023/09/08 08:58:49;;;;;;;13.25;8.93;;;20.80;99.90;;;;;;5059968;28;20465;-85
2023/09/08 09:01:18;;;;;;;17.95;10.07;;;20.80;99.90;;;;;;5059902;28;20025;-85
2023/09/08 09:03:49;;;;;;;10.52;7.93;;;20.80;99.90;;;;;;5077281;28;20059;-85
2023/09/08 09:06:15;;;;;;;10.73;6.40;;;20.90;99.90;;;;;;5060001;28;20086;-84
2023/09/08 09:08:43;;;;;;;8.10;5.38;;;20.90;99.90;;;;;;5059204;28;20024;-84
2023/09/08 09:11:10;;;;;;;11.00;5.35;;;21.10;99.90;;;;;;5077714;28;20029;-83
2023/09/08 09:13:36;;;;;;;8.15;5.80;;;21.20;99.90;;;;;;5059699;28;20127;-84
2023/09/08 09:16:03;;;;;;;8.20;5.78;;;21.30;99.90;;;;;;5059410;28;20024;-84
2023/09/08 09:18:30;;;;;;;8.52;5.18;;;21.40;99.90;;;;;;5059556;28;20057;-84
2023/09/08 09:21:00;;;;;;;9.07;5.43;;;21.50;99.90;;;;;;5059533;28;20016;-85
2023/09/08 09:23:34;;;;;;;9.55;6.18;;;21.50;99.90;;;;;;5059500;28;20021;-84
2023/09/08 09:26:01;;;;;;;10.30;6.57;;;21.50;99.90;;;;;;5059715;28;20025;-84
2023/09/08 09:28:28;;;;;;;10.07;5.63;;;21.50;99.90;;;;;;5058922;28;20032;-86
2023/09/08 09:30:55;;;;;;;9.15;6.30;;;21.60;99.90;;;;;;5059763;28;20111;-84
2023/09/08 09:33:22;;;;;;;11.90;6.65;;;21.60;99.90;;;;;;5077638;28;20028;-84
2023/09/08 09:35:50;;;;;;;10.45;6.15;;;21.60;99.90;;;;;;5058832;28;20023;-85
2023/09/08 09:38:19;;;;;;;9.60;6.63;;;21.70;99.90;;;;;;5058981;28;20345;-84
2023/09/08 09:40:45;;;;;;;12.20;6.45;;;21.70;99.90;;;;;;5058988;28;20024;-85
2023/09/08 09:43:14;;;;;;;7.00;5.20;;;21.70;99.90;;;;;;5058799;28;20056;-84
2023/09/08 09:45:41;;;;;;;10.40;5.90;;;21.70;99.90;;;;;;5058912;28;20356;-85
2023/09/08 09:48:09;;;;;;;15.35;6.93;;;21.70;99.90;;;;;;5059170;28;20029;-85
2023/09/08 09:50:40;;;;;;;10.50;6.35;;;21.70;99.90;;;;;;5076109;28;20040;-85
2023/09/08 09:53:11;;;;;;;9.40;6.22;;;21.90;99.90;;;;;;5059399;28;20028;-85
2023/09/08 09:55:39;;;;;;;9.65;6.22;;;22.00;99.90;;;;;;5058770;28;20029;-85
2023/09/08 09:58:05;;;;;;;10.70;6.10;;;22.00;99.90;;;;;;5075844;28;20040;-84
2023/09/08 10:00:34;;;;;;;9.55;6.47;;;22.20;99.90;;;;;;5057496;28;20029;-86
2023/09/08 10:03:00;;;;;;;10.95;6.63;;;22.30;99.90;;;;;;5058812;28;20024;-84
2023/09/08 10:05:27;;;;;;;9.05;6.10;;;22.40;99.90;;;;;;5058832;28;20115;-83
2023/09/08 10:07:53;;;;;;;15.85;6.50;;;22.40;99.90;;;;;;5077243;28;20039;-84
2023/09/08 10:10:22;;;;;;;10.82;6.43;;;22.40;99.90;;;;;;5061262;28;20453;-84
2023/09/08 10:12:53;;;;;;;13.10;6.45;;;22.50;99.90;;;;;;5077648;28;20024;-84
2023/09/08 10:15:21;;;;;;;10.17;6.33;;;22.60;99.90;;;;;;5077548;28;20024;-83
2023/09/08 10:17:56;;;;;;;12.55;6.53;;;22.70;99.90;;;;;;5058001;28;20288;-84
2023/09/08 10:20:23;;;;;;;12.25;6.35;;;22.80;99.90;;;;;;5058550;28;20024;-84
2023/09/08 10:22:54;;;;;;;13.13;6.15;;;22.80;99.90;;;;;;5058034;28;20020;-84
2023/09/08 10:25:23;;;;;;;11.15;6.32;;;22.80;99.90;;;;;;5058342;28;20036;-83
2023/09/08 10:27:48;;;;;;;12.23;6.55;;;22.90;99.90;;;;;;5075726;28;20263;-84
2023/09/08 10:30:16;;;;;;;9.63;5.82;;;23.00;99.90;;;;;;5075715;28;20475;-85
2023/09/08 10:32:43;;;;;;;11.25;6.05;;;23.00;99.90;;;;;;5075772;28;20021;-85
2023/09/08 10:35:09;;;;;;;10.50;6.13;;;23.10;99.90;;;;;;5058948;28;20032;-84
2023/09/08 10:37:34;;;;;;;10.90;6.22;;;23.00;99.90;;;;;;5059040;28;20063;-85
2023/09/08 10:40:22;;;;;;;10.75;5.65;;;23.10;99.90;;;;;;5063728;28;20033;-84
2023/09/08 10:42:48;;;;;;;10.60;6.03;;;23.10;99.90;;;;;;5078553;28;20426;-85
2023/09/08 10:45:20;;;;;;;8.88;6.35;;;23.10;99.90;;;;;;5095998;28;20028;-85
2023/09/08 10:47:45;;;;;;;7.57;5.38;;;23.20;99.90;;;;;;5094582;28;20028;-83
2023/09/08 10:50:19;;;;;;;9.63;6.00;;;23.20;99.90;;;;;;5078078;28;20052;-83
2023/09/08 10:52:45;;;;;;;9.85;5.40;;;23.10;99.90;;;;;;5077838;28;20081;-82
2023/09/08 10:55:14;;;;;;;8.20;5.10;;;23.10;99.90;;;;;;5095803;28;20016;-83
2023/09/08 10:57:45;;;;;;;12.40;5.60;;;23.10;99.90;;;;;;5077330;28;20032;-83
2023/09/08 11:00:17;;;;;;;10.65;6.35;;;23.20;99.90;;;;;;5077741;28;20028;-83
2023/09/08 11:02:48;;;;;;;10.63;5.40;;;23.30;99.90;;;;;;5077506;28;20028;-83
2023/09/08 11:05:15;;;;;;;;;;;23.40;99.90;;;;;;5095804;28;20489;-83
2023/09/08 11:07:42;;;;;;;8.48;5.45;;;23.50;99.90;;;;;;5076695;28;19904;-84
2023/09/08 11:10:09;;;;;;;9.65;5.28;;;23.70;99.90;;;;;;5095039;28;20024;-84
2023/09/08 11:12:35;;;;;;;8.85;5.45;;;23.80;99.90;;;;;;5094920;28;20024;-85
2023/09/08 11:15:08;;;;;;;7.35;5.40;;;23.90;99.90;;;;;;5095293;28;20101;-83
2023/09/08 11:17:34;;;;;;;10.25;5.80;;;24.00;99.90;;;;;;5077068;28;20075;-85
2023/09/08 11:20:01;;;;;;;12.32;5.50;;;24.00;99.90;;;;;;5077401;28;20118;-83
2023/09/08 11:22:27;;;;;;;9.18;5.28;;;24.10;99.90;;;;;;5077114;28;20504;-83
2023/09/08 11:24:56;;;;;;;8.65;5.28;;;24.10;99.90;;;;;;5093868;28;20021;-84
2023/09/08 11:27:23;;;;;;;8.40;5.55;;;24.30;99.90;;;;;;5094237;28;20067;-82
2023/09/08 11:29:50;;;;;;;6.07;4.90;;;24.30;99.90;;;;;;5094461;28;20020;-84
2023/09/08 11:32:15;;;;;;;8.55;5.32;;;24.30;99.90;;;;;;5093658;28;20469;-83
2023/09/08 11:34:41;;;;;;;7.65;5.32;;;24.30;99.90;;;;;;5093183;28;20053;-84
2023/09/08 11:37:13;;;;;;;6.78;5.30;;;24.30;99.90;;;;;;5095063;28;20039;-83
2023/09/08 11:39:45;;;;;;;;;;;24.30;99.90;;;;;;5076769;28;20033;-83
2023/09/08 11:42:14;;;;;;;9.05;5.20;;;24.30;99.90;;;;;;5077003;28;19908;-84
2023/09/08 11:44:40;;;;;;;6.70;5.00;;;24.40;99.90;;;;;;5094296;28;20073;-84
2023/09/08 11:47:10;;;;;;;6.57;4.72;;;24.50;99.90;;;;;;5095025;28;20067;-83
2023/09/08 11:49:42;;;;;;;6.25;4.53;;;24.50;99.90;;;;;;5093201;28;20048;-85
2023/09/08 11:52:07;;;;;;;6.22;4.78;;;24.60;99.90;;;;;;5094065;28;20393;-83
2023/09/08 11:54:38;;;;;;;7.97;5.22;;;24.60;99.90;;;;;;5093294;28;20024;-84
2023/09/08 11:57:05;;;;;;;7.88;4.82;;;24.60;99.90;;;;;;5094749;28;20028;-83
2023/09/08 11:59:34;;;;;;;8.68;4.95;;;24.70;99.90;;;;;;5076606;28;20051;-83
2023/09/08 12:02:00;;;;;;;8.75;5.53;;;24.80;99.90;;;;;;5076719;28;20115;-83
2023/09/08 12:04:26;;;;;;;6.53;5.10;;;24.90;99.90;;;;;;5094743;28;20109;-83
2023/09/08 12:06:55;;;;;;;8.52;5.57;;;25.00;99.90;;;;;;5094668;28;20392;-84
2023/09/08 12:09:21;;;;;;;6.05;5.03;;;25.20;99.90;;;;;;5076097;28;20465;-79
2023/09/08 12:11:47;;;;;;;7.38;5.15;;;25.40;99.90;;;;;;5081461;28;20056;-81
2023/09/08 12:14:14;;;;;;;7.95;5.28;;;25.50;99.90;;;;;;5056503;28;20024;-84
2023/09/08 12:16:41;;;;;;;10.50;4.72;;;25.60;99.90;;;;;;5042964;28;20037;-84
2023/09/08 12:19:07;;;;;;;7.32;5.50;;;25.80;99.90;;;;;;5054721;28;20102;-81
2023/09/08 12:21:55;;;;;;;12.55;6.05;;;25.90;99.90;;;;;;5053176;28;20421;-82
2023/09/08 12:24:40;;;;;;;8.18;5.05;;;26.00;99.80;;;;;;5058452;28;20028;-84
2023/09/08 12:27:06;;;;;;;7.78;5.28;;;26.10;99.50;;;;;;5054135;28;20537;-84
2023/09/08 12:29:32;;;;;;;8.98;5.55;;;26.20;99.20;;;;;;5075596;28;20021;-86
2023/09/08 12:31:57;;;;;;;7.50;5.65;;;26.50;99.20;;;;;;5074835;28;20109;-84
2023/09/08 12:34:23;;;;;;;7.00;5.25;;;26.60;99.30;;;;;;5073872;28;20382;-85
2023/09/08 12:36:49;;;;;;;7.18;5.38;;;26.80;98.50;;;;;;5073324;28;20131;-85
2023/09/08 12:39:14;;;;;;;7.38;5.40;;;27.00;98.50;;;;;;5073825;28;20054;-85
2023/09/08 12:41:40;;;;;;;6.82;5.00;;;27.10;98.10;;;;;;5055652;28;20040;-88
2023/09/08 12:44:05;;;;;;;6.72;5.07;;;27.20;98.30;;;;;;5073861;28;20024;-86